Time,TemperatureF,DewpointF,PressureIn,WindDirection,WindDirectionDegrees,WindSpeedMPH,WindSpeedGustMPH,Humidity,HourlyPrecipIn,Conditions,Clouds,dailyrainin,SoftwareType,DateUTC
2013-03-13 00:03:00,58.0,57.0,30.03,WSW,245,0.0,0.0,98,0.00,,,0.00,,2013-03-13 04:03:00,
2013-03-13 00:13:00,58.0,57.0,30.03,WSW,245,0.0,0.0,98,0.00,,,0.00,,2013-03-13 04:13:00,
2013-03-13 00:22:00,58.0,57.0,30.04,WSW,245,0.0,0.0,98,0.00,,,0.25,,2013-03-13 04:22:00,
2013-03-13 00:32:00,58.0,58.0,30.04,WSW,245,0.0,0.0,99,0.00,,,0.25,,2013-03-13 04:32:00,
2013-03-13 00:43:00,58.0,58.0,30.04,WSW,245,0.0,0.0,99,0.00,,,0.25,,2013-03-13 04:43:00,
2013-03-13 00:53:00,58.0,58.0,30.04,WSW,245,0.0,0.0,99,0.00,,,0.25,,2013-03-13 04:53:00,
2013-03-13 01:02:00,57.0,57.0,30.05,WSW,245,0.0,0.0,99,0.00,,,0.25,,2013-03-13 05:02:00,
2013-03-13 01:12:00,57.0,57.0,30.05,WSW,245,0.0,0.0,99,0.00,,,0.25,,2013-03-13 05:12:00,
2013-03-13 01:22:00,57.0,57.0,30.05,WSW,256,0.0,5.0,99,0.00,,,0.25,,2013-03-13 05:22:00,
2013-03-13 01:32:00,57.0,57.0,30.05,WNW,283,0.0,4.0,99,0.00,,,0.25,,2013-03-13 05:32:00,
2013-03-13 01:42:00,57.0,57.0,30.05,WNW,283,0.0,4.0,99,0.00,,,0.25,,2013-03-13 05:42:00,
2013-03-13 01:52:00,56.0,55.0,30.05,WNW,283,0.0,0.0,98,0.00,,,0.25,,2013-03-13 05:52:00,
2013-03-13 02:02:00,56.0,55.0,30.05,WNW,283,0.0,0.0,97,0.00,,,0.25,,2013-03-13 06:02:00,
2013-03-13 02:12:00,56.0,55.0,30.05,WNW,283,0.0,0.0,97,0.00,,,0.25,,2013-03-13 06:12:00,
2013-03-13 02:23:00,55.0,54.0,30.05,WNW,283,0.0,0.0,97,0.00,,,0.25,,2013-03-13 06:23:00,
2013-03-13 02:32:00,55.0,54.0,30.06,WNW,290,2.0,2.0,97,0.00,,,0.25,,2013-03-13 06:32:00,
2013-03-13 02:42:00,55.0,54.0,30.06,WNW,290,2.0,2.0,97,0.00,,,0.25,,2013-03-13 06:42:00,
2013-03-13 02:53:00,55.0,54.0,30.05,NW,311,0.0,0.0,96,0.00,,,0.25,,2013-03-13 06:53:00,
2013-03-13 03:02:00,54.0,53.0,30.05,NW,311,0.0,0.0,96,0.00,,,0.25,,2013-03-13 07:02:00,
2013-03-13 03:12:00,54.0,53.0,30.05,NW,311,0.0,0.0,96,0.00,,,0.25,,2013-03-13 07:12:00,
2013-03-13 03:22:00,54.0,53.0,30.05,NW,311,0.0,0.0,95,0.00,,,0.25,,2013-03-13 07:22:00,
2013-03-13 03:32:00,54.0,53.0,30.05,WNW,284,0.0,0.0,95,0.00,,,0.25,,2013-03-13 07:32:00,
2013-03-13 03:42:00,54.0,53.0,30.05,WNW,284,0.0,0.0,95,0.00,,,0.25,,2013-03-13 07:42:00,
2013-03-13 03:53:00,53.0,51.0,30.05,SW,233,0.0,0.0,94,0.00,,,0.25,,2013-03-13 07:53:00,
2013-03-13 04:03:00,53.0,51.0,30.04,SW,233,0.0,0.0,94,0.00,,,0.25,,2013-03-13 08:03:00,
2013-03-13 04:12:00,53.0,51.0,30.04,SW,233,0.0,0.0,94,0.00,,,0.25,,2013-03-13 08:12:00,
2013-03-13 04:22:00,53.0,51.0,30.05,West,259,3.0,5.0,92,0.00,,,0.25,,2013-03-13 08:22:00,
2013-03-13 04:32:00,53.0,50.0,30.05,WNW,288,0.0,0.0,90,0.00,,,0.25,,2013-03-13 08:32:00,
2013-03-13 04:43:00,53.0,50.0,30.05,WNW,288,0.0,0.0,90,0.00,,,0.25,,2013-03-13 08:43:00,
2013-03-13 04:54:00,52.0,49.0,30.05,WNW,288,0.0,0.0,90,0.00,,,0.25,,2013-03-13 08:54:00,
2013-03-13 05:02:00,52.0,49.0,30.05,WNW,288,0.0,0.0,90,0.00,,,0.25,,2013-03-13 09:02:00,
2013-03-13 05:12:00,52.0,49.0,30.05,WNW,288,0.0,0.0,90,0.00,,,0.25,,2013-03-13 09:12:00,
2013-03-13 05:22:00,52.0,49.0,30.06,WNW,288,0.0,0.0,88,0.00,,,0.25,,2013-03-13 09:22:00,
2013-03-13 05:32:00,52.0,48.0,30.06,WNW,288,0.0,0.0,87,0.00,,,0.25,,2013-03-13 09:32:00,
2013-03-13 05:42:00,52.0,48.0,30.06,WNW,288,0.0,0.0,87,0.00,,,0.25,,2013-03-13 09:42:00,
2013-03-13 05:52:00,52.0,48.0,30.07,North,350,0.0,3.0,85,0.00,,,0.25,,2013-03-13 09:52:00,
2013-03-13 06:02:00,52.0,48.0,30.08,NW,318,1.0,0.0,85,0.00,,,0.25,,2013-03-13 10:02:00,
2013-03-13 06:12:00,52.0,48.0,30.08,NW,318,1.0,0.0,85,0.00,,,0.25,,2013-03-13 10:12:00,
2013-03-13 06:22:00,51.0,46.0,30.08,NW,318,0.0,0.0,84,0.00,,,0.25,,2013-03-13 10:22:00,
2013-03-13 06:32:00,51.0,47.0,30.09,WNW,288,2.0,2.0,85,0.00,,,0.25,,2013-03-13 10:32:00,
2013-03-13 06:42:00,51.0,47.0,30.09,WNW,288,2.0,2.0,85,0.00,,,0.25,,2013-03-13 10:42:00,
2013-03-13 06:52:00,51.0,47.0,30.09,NW,305,3.0,3.0,85,0.00,,,0.25,,2013-03-13 10:52:00,
2013-03-13 07:02:00,50.0,45.0,30.11,North,359,0.0,0.0,84,0.00,,,0.25,,2013-03-13 11:02:00,
2013-03-13 07:12:00,50.0,45.0,30.11,North,359,0.0,0.0,84,0.00,,,0.25,,2013-03-13 11:12:00,
2013-03-13 07:22:00,50.0,45.0,30.11,North,359,0.0,0.0,84,0.00,,,0.25,,2013-03-13 11:22:00,
2013-03-13 07:32:00,50.0,45.0,30.12,NW,318,0.0,0.0,84,0.00,,,0.25,,2013-03-13 11:32:00,
2013-03-13 07:42:00,50.0,45.0,30.12,NW,318,0.0,0.0,84,0.00,,,0.25,,2013-03-13 11:42:00,
2013-03-13 07:53:00,50.0,46.0,30.12,North,359,0.0,0.0,85,0.00,,,0.25,,2013-03-13 11:53:00,
2013-03-13 08:02:00,50.0,46.0,30.13,North,359,0.0,0.0,85,0.00,,,0.25,,2013-03-13 12:02:00,
2013-03-13 08:12:00,50.0,46.0,30.13,North,359,0.0,0.0,85,0.00,,,0.25,,2013-03-13 12:12:00,
2013-03-13 08:22:00,50.0,45.0,30.13,NNW,345,4.0,4.0,84,0.00,,,0.25,,2013-03-13 12:22:00,
2013-03-13 08:32:00,50.0,45.0,30.14,North,359,1.0,0.0,84,0.00,,,0.25,,2013-03-13 12:32:00,
2013-03-13 08:42:00,50.0,45.0,30.14,North,359,1.0,0.0,84,0.00,,,0.25,,2013-03-13 12:42:00,
2013-03-13 08:53:00,51.0,46.0,30.15,North,359,1.0,0.0,82,0.00,,,0.25,,2013-03-13 12:53:00,
2013-03-13 09:02:00,52.0,45.0,30.15,North,359,0.0,0.0,78,0.00,,,0.25,,2013-03-13 13:02:00,
2013-03-13 09:12:00,52.0,45.0,30.15,North,359,0.0,0.0,78,0.00,,,0.25,,2013-03-13 13:12:00,
2013-03-13 09:22:00,53.0,45.0,30.15,WNW,294,2.0,0.0,75,0.00,,,0.25,,2013-03-13 13:22:00,
2013-03-13 09:33:00,54.0,45.0,30.16,WNW,293,6.0,6.0,71,0.00,,,0.25,,2013-03-13 13:33:00,
2013-03-13 09:43:00,54.0,45.0,30.16,WNW,293,6.0,6.0,71,0.00,,,0.25,,2013-03-13 13:43:00,
2013-03-13 09:53:00,56.0,45.0,30.16,North,1,4.0,0.0,66,0.00,,,0.25,,2013-03-13 13:53:00,
2013-03-13 10:02:00,57.0,42.0,30.16,NNW,335,9.0,9.0,58,0.00,,,0.25,,2013-03-13 14:02:00,
2013-03-13 10:12:00,57.0,42.0,30.16,NNW,335,9.0,9.0,58,0.00,,,0.25,,2013-03-13 14:12:00,
2013-03-13 10:22:00,58.0,42.0,30.16,WNW,300,6.0,7.0,56,0.00,,,0.25,,2013-03-13 14:22:00,
2013-03-13 10:33:00,59.0,43.0,30.16,NW,325,7.0,7.0,55,0.00,,,0.25,,2013-03-13 14:33:00,
2013-03-13 10:42:00,59.0,43.0,30.16,NW,325,7.0,7.0,55,0.00,,,0.25,,2013-03-13 14:42:00,
2013-03-13 10:53:00,59.0,42.0,30.16,North,359,7.0,0.0,53,0.00,,,0.25,,2013-03-13 14:53:00,
2013-03-13 11:03:00,61.0,44.0,30.16,North,359,0.0,0.0,53,0.00,,,0.25,,2013-03-13 15:03:00,
2013-03-13 11:12:00,61.0,44.0,30.16,North,359,0.0,0.0,53,0.00,,,0.25,,2013-03-13 15:12:00,
2013-03-13 11:22:00,62.0,43.0,30.17,North,359,0.0,0.0,49,0.00,,,0.25,,2013-03-13 15:22:00,
2013-03-13 11:32:00,63.0,41.0,30.17,North,359,4.0,4.0,44,0.00,,,0.25,,2013-03-13 15:32:00,
2013-03-13 11:42:00,63.0,41.0,30.17,North,359,4.0,4.0,44,0.00,,,0.25,,2013-03-13 15:42:00,
2013-03-13 11:53:00,64.0,40.0,30.17,NW,321,0.0,0.0,41,0.00,,,0.25,,2013-03-13 15:53:00,
2013-03-13 12:03:00,65.0,39.0,30.17,NW,321,2.0,7.0,38,0.00,,,0.25,,2013-03-13 16:03:00,
2013-03-13 12:12:00,65.0,39.0,30.17,NW,321,2.0,7.0,38,0.00,,,0.25,,2013-03-13 16:12:00,
2013-03-13 12:22:00,65.0,37.0,30.17,North,359,5.0,5.0,36,0.00,,,0.25,,2013-03-13 16:22:00,
2013-03-13 12:32:00,66.0,38.0,30.17,NNW,342,2.0,8.0,36,0.00,,,0.25,,2013-03-13 16:32:00,
2013-03-13 12:42:00,66.0,38.0,30.17,NNW,342,2.0,8.0,36,0.00,,,0.25,,2013-03-13 16:42:00,
2013-03-13 12:52:00,66.0,36.0,30.17,West,262,0.0,0.0,33,0.00,,,0.25,,2013-03-13 16:52:00,
2013-03-13 13:03:00,67.0,37.0,30.17,NNW,343,6.0,6.0,33,0.00,,,0.25,,2013-03-13 17:03:00,
2013-03-13 13:12:00,67.0,37.0,30.17,NNW,343,6.0,6.0,33,0.00,,,0.25,,2013-03-13 17:12:00,
2013-03-13 13:22:00,68.0,38.0,30.17,NNW,333,2.0,6.0,33,0.00,,,0.25,,2013-03-13 17:22:00,
2013-03-13 13:32:00,69.0,37.0,30.16,NW,316,6.0,7.0,31,0.00,,,0.25,,2013-03-13 17:32:00,
2013-03-13 13:42:00,69.0,37.0,30.16,NW,316,6.0,7.0,31,0.00,,,0.25,,2013-03-13 17:42:00,
2013-03-13 13:53:00,69.0,39.0,30.16,North,359,0.0,0.0,33,0.00,,,0.25,,2013-03-13 17:53:00,
2013-03-13 14:02:00,70.0,38.0,30.16,NNW,347,5.0,8.0,31,0.00,,,0.25,,2013-03-13 18:02:00,
2013-03-13 14:12:00,70.0,38.0,30.16,NNW,347,5.0,8.0,31,0.00,,,0.25,,2013-03-13 18:12:00,
2013-03-13 14:22:00,71.0,40.0,30.15,West,271,4.0,5.0,32,0.00,,,0.25,,2013-03-13 18:22:00,
2013-03-13 14:33:00,71.0,39.0,30.14,WNW,298,6.0,6.0,31,0.00,,,0.25,,2013-03-13 18:33:00,
2013-03-13 14:42:00,71.0,39.0,30.14,WNW,298,6.0,6.0,31,0.00,,,0.25,,2013-03-13 18:42:00,
2013-03-13 14:52:00,72.0,39.0,30.13,NW,309,3.0,0.0,30,0.00,,,0.25,,2013-03-13 18:52:00,
2013-03-13 15:02:00,72.0,37.0,30.12,WSW,250,5.0,8.0,28,0.00,,,0.25,,2013-03-13 19:02:00,
2013-03-13 15:12:00,72.0,37.0,30.12,WSW,250,5.0,8.0,28,0.00,,,0.25,,2013-03-13 19:12:00,
2013-03-13 15:22:00,73.0,37.0,30.12,NW,321,5.0,10.0,27,0.00,,,0.25,,2013-03-13 19:22:00,
2013-03-13 15:32:00,73.0,38.0,30.11,NW,314,4.0,6.0,28,0.00,,,0.25,,2013-03-13 19:32:00,
2013-03-13 15:43:00,73.0,38.0,30.11,NW,314,4.0,6.0,28,0.00,,,0.25,,2013-03-13 19:43:00,
2013-03-13 15:53:00,72.0,34.0,30.11,WSW,245,7.0,7.0,25,0.00,,,0.25,,2013-03-13 19:53:00,
2013-03-13 16:02:00,73.0,36.0,30.10,WNW,302,0.0,0.0,26,0.00,,,0.25,,2013-03-13 20:02:00,
2013-03-13 16:12:00,73.0,36.0,30.10,WNW,302,0.0,0.0,26,0.00,,,0.25,,2013-03-13 20:12:00,
2013-03-13 16:22:00,73.0,35.0,30.09,WNW,302,0.0,0.0,25,0.00,,,0.25,,2013-03-13 20:22:00,
2013-03-13 16:32:00,73.0,34.0,30.09,WNW,302,0.0,0.0,24,0.00,,,0.25,,2013-03-13 20:32:00,
2013-03-13 16:42:00,73.0,34.0,30.09,WNW,302,0.0,0.0,24,0.00,,,0.25,,2013-03-13 20:42:00,
2013-03-13 16:52:00,73.0,35.0,30.08,WNW,302,0.0,0.0,25,0.00,,,0.25,,2013-03-13 20:52:00,
2013-03-13 17:02:00,73.0,35.0,30.07,SW,226,1.0,1.0,25,0.00,,,0.25,,2013-03-13 21:02:00,
2013-03-13 17:12:00,73.0,35.0,30.07,SW,226,1.0,1.0,25,0.00,,,0.25,,2013-03-13 21:12:00,
2013-03-13 17:22:00,73.0,34.0,30.07,NNW,345,1.0,0.0,24,0.00,,,0.25,,2013-03-13 21:22:00,
2013-03-13 17:33:00,73.0,34.0,30.07,SSE,158,2.0,0.0,24,0.00,,,0.25,,2013-03-13 21:33:00,
2013-03-13 17:42:00,73.0,34.0,30.07,SSE,158,2.0,0.0,24,0.00,,,0.25,,2013-03-13 21:42:00,
2013-03-13 17:52:00,73.0,35.0,30.07,NW,321,2.0,2.0,25,0.00,,,0.25,,2013-03-13 21:52:00,
2013-03-13 18:02:00,73.0,31.0,30.06,West,273,3.0,3.0,21,0.00,,,0.25,,2013-03-13 22:02:00,
2013-03-13 18:12:00,73.0,31.0,30.06,West,273,3.0,3.0,21,0.00,,,0.25,,2013-03-13 22:12:00,
2013-03-13 18:22:00,73.0,33.0,30.07,WNW,293,4.0,4.0,23,0.00,,,0.25,,2013-03-13 22:22:00,
2013-03-13 18:32:00,72.0,34.0,30.07,WNW,288,4.0,0.0,25,0.00,,,0.25,,2013-03-13 22:32:00,
2013-03-13 18:42:00,72.0,34.0,30.07,WNW,288,4.0,0.0,25,0.00,,,0.25,,2013-03-13 22:42:00,
2013-03-13 18:52:00,72.0,32.0,30.07,SW,231,6.0,0.0,23,0.00,,,0.25,,2013-03-13 22:52:00,
2013-03-13 19:02:00,71.0,31.0,30.07,North,359,0.0,0.0,23,0.00,,,0.25,,2013-03-13 23:02:00,
2013-03-13 19:12:00,71.0,31.0,30.07,North,359,0.0,0.0,23,0.00,,,0.25,,2013-03-13 23:12:00,
2013-03-13 19:22:00,71.0,32.0,30.07,West,281,3.0,3.0,24,0.00,,,0.25,,2013-03-13 23:22:00,
2013-03-13 19:32:00,70.0,34.0,30.07,NNW,333,2.0,2.0,26,0.00,,,0.25,,2013-03-13 23:32:00,
2013-03-13 19:42:00,70.0,34.0,30.07,NNW,333,2.0,2.0,26,0.00,,,0.25,,2013-03-13 23:42:00,
2013-03-13 19:52:00,69.0,35.0,30.08,West,260,1.0,0.0,28,0.00,,,0.25,,2013-03-13 23:52:00,
2013-03-13 20:02:00,68.0,35.0,30.08,West,281,0.0,0.0,30,0.00,,,0.25,,2013-03-14 00:02:00,
2013-03-13 20:13:00,66.0,40.0,30.09,North,359,3.0,5.0,38,0.00,,,0.25,,2013-03-14 00:13:00,
2013-03-13 20:22:00,66.0,40.0,30.09,North,359,3.0,5.0,38,0.00,,,0.25,,2013-03-14 00:22:00,
2013-03-13 20:32:00,64.0,41.0,30.10,NE,53,0.0,0.0,43,0.00,,,0.25,,2013-03-14 00:32:00,
2013-03-13 20:42:00,64.0,41.0,30.10,NE,53,0.0,0.0,43,0.00,,,0.25,,2013-03-14 00:42:00,
2013-03-13 20:52:00,63.0,42.0,30.11,North,10,0.0,0.0,46,0.00,,,0.25,,2013-03-14 00:52:00,
2013-03-13 21:02:00,62.0,42.0,30.11,NNE,28,0.0,0.0,48,0.00,,,0.25,,2013-03-14 01:02:00,
2013-03-13 21:12:00,62.0,42.0,30.11,NNE,28,0.0,0.0,48,0.00,,,0.25,,2013-03-14 01:12:00,
2013-03-13 21:22:00,61.0,43.0,30.13,NNE,28,0.0,0.0,52,0.00,,,0.25,,2013-03-14 01:22:00,
2013-03-13 21:32:00,60.0,45.0,30.14,NNE,28,0.0,0.0,57,0.00,,,0.25,,2013-03-14 01:32:00,
2013-03-13 21:42:00,60.0,45.0,30.14,NNE,28,0.0,0.0,57,0.00,,,0.25,,2013-03-14 01:42:00,
2013-03-13 21:53:00,59.0,46.0,30.15,NNE,28,0.0,0.0,62,0.00,,,0.25,,2013-03-14 01:53:00,
2013-03-13 22:02:00,58.0,47.0,30.15,NNE,28,0.0,0.0,67,0.00,,,0.25,,2013-03-14 02:02:00,
2013-03-13 22:12:00,58.0,47.0,30.15,NNE,28,0.0,0.0,67,0.00,,,0.25,,2013-03-14 02:12:00,
2013-03-13 22:22:00,56.0,46.0,30.16,SSW,208,1.0,0.0,70,0.00,,,0.25,,2013-03-14 02:22:00,
2013-03-13 22:32:00,55.0,46.0,30.16,SSW,208,0.0,0.0,71,0.00,,,0.25,,2013-03-14 02:32:00,
2013-03-13 22:42:00,55.0,46.0,30.16,SSW,208,0.0,0.0,71,0.00,,,0.25,,2013-03-14 02:42:00,
2013-03-13 22:52:00,55.0,46.0,30.16,SSW,208,0.0,0.0,71,0.00,,,0.25,,2013-03-14 02:52:00,
2013-03-13 23:02:00,54.0,47.0,30.17,SSW,208,0.0,0.0,77,0.00,,,0.25,,2013-03-14 03:02:00,
2013-03-13 23:12:00,54.0,47.0,30.17,SSW,208,0.0,0.0,77,0.00,,,0.25,,2013-03-14 03:12:00,
2013-03-13 23:23:00,53.0,47.0,30.17,SSW,208,0.0,0.0,80,0.00,,,0.25,,2013-03-14 03:23:00,
2013-03-13 23:32:00,53.0,47.0,30.18,SSW,208,0.0,0.0,81,0.00,,,0.25,,2013-03-14 03:32:00,
2013-03-13 23:42:00,53.0,47.0,30.18,SSW,208,0.0,0.0,81,0.00,,,0.25,,2013-03-14 03:42:00,
2013-03-13 23:53:00,52.0,47.0,30.18,WSW,242,0.0,0.0,83,0.00,,,0.25,,2013-03-14 03:53:00,